createdAt,value
2022-07-26T00:01:32.019Z,1.95
2022-07-26T00:04:02.423Z,2.42
2022-07-26T00:06:31.425Z,1.95
2022-07-26T00:08:59.804Z,2.05
2022-07-26T00:11:28.780Z,1.90
2022-07-26T00:13:58.513Z,2.10
2022-07-26T00:16:27.219Z,2.15
2022-07-26T00:18:56.269Z,2.28
2022-07-26T00:21:25.897Z,1.85
2022-07-26T00:23:54.236Z,1.90
2022-07-26T00:26:22.501Z,2.25
2022-07-26T00:28:50.725Z,2.20
2022-07-26T00:31:20.929Z,2.17
2022-07-26T00:33:49.586Z,2.53
2022-07-26T00:36:18.484Z,2.05
2022-07-26T00:38:46.712Z,2.28
2022-07-26T00:41:15.893Z,1.92
2022-07-26T00:43:56.382Z,1.98
2022-07-26T00:46:26.306Z,2.03
2022-07-26T00:48:55.402Z,1.92
2022-07-26T00:51:24.017Z,2.45
2022-07-26T00:53:52.394Z,1.55
2022-07-26T00:56:21.034Z,1.55
2022-07-26T00:58:49.834Z,2.28
2022-07-26T01:01:18.649Z,1.70
2022-07-26T01:03:53.335Z,1.80
2022-07-26T01:06:26.987Z,1.90
2022-07-26T01:08:56.913Z,1.73
2022-07-26T01:11:25.173Z,2.15
2022-07-26T01:13:53.721Z,1.90
2022-07-26T01:16:22.170Z,1.90
2022-07-26T01:18:53.496Z,1.75
2022-07-26T01:21:23.085Z,1.90
2022-07-26T01:23:52.910Z,2.08
2022-07-26T01:26:21.230Z,2.00
2022-07-26T01:28:54.496Z,2.30
2022-07-26T01:31:22.993Z,1.55
2022-07-26T01:33:51.818Z,1.85
2022-07-26T01:36:21.359Z,1.95
2022-07-26T01:38:50.141Z,1.77
2022-07-26T01:41:31.002Z,2.03
2022-07-26T01:44:07.933Z,2.17
2022-07-26T01:46:39.099Z,2.13
2022-07-26T01:49:09.157Z,1.52
2022-07-26T01:51:38.072Z,1.92
2022-07-26T01:54:07.151Z,1.60
2022-07-26T01:56:37.382Z,1.92
2022-07-26T01:59:05.597Z,1.30
2022-07-26T02:01:38.661Z,1.40
2022-07-26T02:04:29.970Z,1.30
2022-07-26T02:06:58.551Z,1.80
2022-07-26T02:09:26.865Z,1.25
2022-07-26T02:12:00.098Z,1.40
2022-07-26T02:14:29.156Z,1.30
2022-07-26T02:17:00.057Z,1.40
2022-07-26T02:19:30.043Z,1.30
2022-07-26T02:21:59.576Z,1.80
2022-07-26T02:24:29.088Z,1.48
2022-07-26T02:26:59.709Z,1.55
2022-07-26T02:29:28.771Z,1.30
2022-07-26T02:31:58.666Z,1.30
2022-07-26T02:34:29.919Z,1.42
2022-07-26T02:37:01.635Z,1.15
2022-07-26T02:39:30.858Z,1.40
2022-07-26T02:42:09.440Z,1.20
2022-07-26T02:44:37.754Z,1.08
2022-07-26T02:47:06.248Z,1.10
2022-07-26T02:49:34.941Z,1.63
2022-07-26T02:52:03.687Z,1.90
2022-07-26T02:54:32.378Z,1.20
2022-07-26T02:57:03.836Z,1.08
2022-07-26T02:59:32.060Z,1.50
2022-07-26T03:02:01.592Z,1.88
2022-07-26T03:04:30.445Z,1.17
2022-07-26T03:06:58.879Z,1.80
2022-07-26T03:09:27.257Z,1.77
2022-07-26T03:11:56.475Z,1.63
2022-07-26T03:14:26.757Z,1.40
2022-07-26T03:16:56.085Z,1.38
2022-07-26T03:19:24.797Z,1.10
2022-07-26T03:21:56.349Z,1.38
2022-07-26T03:24:25.911Z,1.02
2022-07-26T03:26:54.662Z,1.20
2022-07-26T03:29:23.670Z,1.23
2022-07-26T03:31:53.293Z,1.00
2022-07-26T03:34:22.342Z,1.30
2022-07-26T03:36:51.139Z,1.13
2022-07-26T03:39:19.496Z,1.08
2022-07-26T03:41:47.759Z,1.30
2022-07-26T03:44:17.466Z,1.30
2022-07-26T03:46:47.181Z,1.55
2022-07-26T03:49:20.401Z,1.40
2022-07-26T03:51:49.116Z,1.52
2022-07-26T03:54:17.543Z,1.60
2022-07-26T03:56:44.836Z,1.75
2022-07-26T03:59:14.612Z,1.88
2022-07-26T04:01:44.417Z,1.70
2022-07-26T04:04:14.091Z,1.85
2022-07-26T04:06:43.708Z,2.03
2022-07-26T04:09:15.021Z,2.33
2022-07-26T04:11:43.670Z,1.65
2022-07-26T04:14:12.688Z,2.05
2022-07-26T04:16:43.599Z,1.88
2022-07-26T04:19:15.065Z,1.92
2022-07-26T04:21:45.306Z,1.55
2022-07-26T04:24:13.673Z,1.80
2022-07-26T04:26:41.852Z,1.92
2022-07-26T04:29:12.676Z,2.10
2022-07-26T04:31:40.993Z,1.65
2022-07-26T04:34:09.914Z,1.40
2022-07-26T04:36:40.911Z,1.90
2022-07-26T04:39:12.387Z,2.30
2022-07-26T04:41:41.280Z,1.80
2022-07-26T04:44:10.770Z,1.80
2022-07-26T04:46:39.305Z,2.08
2022-07-26T04:49:14.096Z,2.05
2022-07-26T04:51:42.453Z,2.15
2022-07-26T04:54:12.520Z,2.05
2022-07-26T04:56:42.247Z,2.00
2022-07-26T04:59:10.475Z,2.22
2022-07-26T05:01:38.756Z,2.42
2022-07-26T05:04:07.641Z,1.73
2022-07-26T05:06:37.267Z,2.13
2022-07-26T05:09:05.926Z,1.92
2022-07-26T05:11:36.174Z,2.25
2022-07-26T05:14:04.685Z,2.25
2022-07-26T05:16:33.797Z,2.30
2022-07-26T05:19:07.395Z,2.55
2022-07-26T05:21:35.756Z,2.20
2022-07-26T05:24:07.960Z,2.58
2022-07-26T05:26:38.111Z,2.40
2022-07-26T05:29:06.426Z,3.10
2022-07-26T05:31:34.610Z,2.90
2022-07-26T05:34:03.681Z,3.05
2022-07-26T05:36:31.962Z,3.10
2022-07-26T05:39:00.491Z,2.88
2022-07-26T05:41:29.270Z,2.67
2022-07-26T05:43:59.303Z,2.53
2022-07-26T05:46:31.107Z,3.40
2022-07-26T05:48:59.461Z,2.63
2022-07-26T05:51:30.230Z,3.35
2022-07-26T05:53:58.417Z,3.50
2022-07-26T05:56:40.682Z,3.47
2022-07-26T05:59:10.379Z,3.50
2022-07-26T06:01:38.784Z,3.63
2022-07-26T06:04:09.272Z,3.97
2022-07-26T06:06:38.244Z,4.35
2022-07-26T06:09:08.429Z,4.35
2022-07-26T06:11:38.028Z,3.50
2022-07-26T06:14:07.165Z,4.32
2022-07-26T06:16:36.802Z,3.80
2022-07-26T06:19:22.355Z,3.88
2022-07-26T06:21:50.998Z,4.30
2022-07-26T06:24:19.306Z,4.45
2022-07-26T06:26:54.713Z,4.25
2022-07-26T06:29:32.174Z,4.40
2022-07-26T06:32:02.475Z,4.90
2022-07-26T06:34:30.958Z,4.35
2022-07-26T06:37:00.683Z,4.35
2022-07-26T06:39:29.296Z,3.90
2022-07-26T06:41:57.537Z,3.67
2022-07-26T06:44:26.417Z,3.83
2022-07-26T06:46:55.190Z,3.75
2022-07-26T06:49:25.459Z,3.95
2022-07-26T06:51:53.725Z,3.75
2022-07-26T06:54:24.817Z,3.40
2022-07-26T06:56:55.708Z,3.80
2022-07-26T06:59:25.158Z,3.30
2022-07-26T07:01:59.416Z,3.70
2022-07-26T07:04:31.347Z,4.20
2022-07-26T07:07:06.034Z,3.70
2022-07-26T07:09:37.560Z,3.78
2022-07-26T07:12:09.952Z,3.83
2022-07-26T07:14:39.585Z,3.25
2022-07-26T07:17:12.073Z,3.65
2022-07-26T07:19:43.266Z,3.05
2022-07-26T07:22:12.920Z,3.45
2022-07-26T07:24:41.965Z,3.30
2022-07-26T07:27:11.435Z,3.97
2022-07-26T07:29:42.053Z,3.13
2022-07-26T07:32:18.006Z,4.03
2022-07-26T07:34:50.726Z,4.00
2022-07-26T07:37:20.259Z,3.50
2022-07-26T07:39:50.621Z,3.55
2022-07-26T07:42:19.971Z,3.40
2022-07-26T07:44:50.103Z,3.60
2022-07-26T07:47:18.596Z,3.50
2022-07-26T07:49:46.997Z,3.60
2022-07-26T07:52:17.495Z,3.40
2022-07-26T07:54:47.188Z,4.00
2022-07-26T07:57:15.905Z,3.47
2022-07-26T07:59:44.126Z,3.63
2022-07-26T08:02:15.010Z,3.42
2022-07-26T08:04:43.689Z,3.90
2022-07-26T08:07:12.636Z,4.40
2022-07-26T08:09:45.162Z,4.72
2022-07-26T08:12:14.712Z,4.47
2022-07-26T08:14:43.024Z,5.03
2022-07-26T08:17:12.399Z,6.40
2022-07-26T08:19:42.556Z,5.85
2022-07-26T08:22:12.315Z,4.75
2022-07-26T08:24:42.064Z,5.07
2022-07-26T08:27:11.756Z,5.40
2022-07-26T08:29:39.957Z,5.07
2022-07-26T08:32:08.397Z,5.43
2022-07-26T08:34:37.149Z,4.88
2022-07-26T08:37:17.002Z,4.53
2022-07-26T08:39:46.286Z,4.78
2022-07-26T08:42:17.367Z,4.38
2022-07-26T08:44:52.141Z,4.50
2022-07-26T08:47:37.722Z,4.47
2022-07-26T08:50:10.126Z,4.22
2022-07-26T08:52:40.990Z,3.70
2022-07-26T08:55:10.257Z,3.33
2022-07-26T08:57:39.984Z,2.83
2022-07-26T09:00:20.750Z,2.72
2022-07-26T09:02:49.693Z,2.60
2022-07-26T09:05:20.526Z,2.90
2022-07-26T09:07:50.328Z,3.20
2022-07-26T09:10:18.957Z,2.72
2022-07-26T09:12:55.516Z,2.75
2022-07-26T09:15:25.592Z,2.25
2022-07-26T09:17:57.118Z,2.20
2022-07-26T09:20:28.653Z,2.38
2022-07-26T09:23:00.028Z,2.10
2022-07-26T09:25:31.964Z,1.98
2022-07-26T09:28:03.812Z,2.05
2022-07-26T09:30:33.447Z,1.58
2022-07-26T09:33:04.589Z,1.70
2022-07-26T09:35:52.267Z,1.50
2022-07-26T09:38:21.318Z,1.88
2022-07-26T09:40:51.549Z,1.80
2022-07-26T09:43:24.071Z,1.80
2022-07-26T09:46:05.883Z,1.65
2022-07-26T09:49:07.181Z,2.05
2022-07-26T09:51:37.513Z,1.70
2022-07-26T09:54:06.856Z,1.88
2022-07-26T09:56:47.197Z,1.58
2022-07-26T09:59:18.655Z,1.60
2022-07-26T10:01:48.932Z,2.60
2022-07-26T10:04:19.246Z,1.98
2022-07-26T10:06:47.583Z,2.00
2022-07-26T10:09:16.535Z,1.50
2022-07-26T10:11:50.598Z,1.60
2022-07-26T10:14:38.965Z,2.05
2022-07-26T10:17:49.456Z,1.80
2022-07-26T10:20:47.656Z,1.70
2022-07-26T10:23:38.667Z,2.80
2022-07-26T10:26:09.917Z,2.70
2022-07-26T10:28:39.726Z,1.65
2022-07-26T10:31:30.537Z,1.48
2022-07-26T10:34:01.118Z,2.03
2022-07-26T10:36:33.458Z,1.42
2022-07-26T10:39:15.329Z,1.63
2022-07-26T10:41:46.642Z,2.63
2022-07-26T10:44:23.308Z,1.60
2022-07-26T10:47:15.624Z,1.50
2022-07-26T10:49:56.699Z,1.65
2022-07-26T10:52:27.858Z,1.67
2022-07-26T10:55:18.477Z,1.60
2022-07-26T10:57:50.455Z,1.77
2022-07-26T11:00:25.598Z,1.90
2022-07-26T11:03:01.708Z,1.60
2022-07-26T11:05:32.079Z,1.80
2022-07-26T11:08:08.250Z,1.80
2022-07-26T11:10:39.365Z,1.63
2022-07-26T11:13:16.441Z,1.80
2022-07-26T11:15:48.690Z,1.83
2022-07-26T11:18:25.183Z,2.05
2022-07-26T11:20:55.931Z,1.80
2022-07-26T11:23:33.976Z,1.90
2022-07-26T11:26:07.206Z,1.80
2022-07-26T11:28:59.761Z,3.70
2022-07-26T11:31:50.899Z,2.00
2022-07-26T11:34:30.377Z,2.10
2022-07-26T11:37:00.531Z,1.80
2022-07-26T11:39:33.411Z,1.80
2022-07-26T11:42:04.505Z,1.98
2022-07-26T11:44:33.833Z,2.33
2022-07-26T11:47:11.367Z,1.90
2022-07-26T11:49:59.871Z,2.20
2022-07-26T11:52:33.352Z,2.10
2022-07-26T11:55:01.999Z,2.33
2022-07-26T11:57:31.980Z,1.95
2022-07-26T12:00:01.989Z,2.13
2022-07-26T12:02:31.477Z,2.00
2022-07-26T12:05:20.830Z,2.30
2022-07-26T12:07:57.880Z,2.08
2022-07-26T12:10:27.419Z,2.00
2022-07-26T12:13:10.423Z,2.35
2022-07-26T12:15:48.496Z,2.13
2022-07-26T12:18:25.550Z,2.22
2022-07-26T12:21:06.344Z,2.50
2022-07-26T12:23:45.887Z,2.63
2022-07-26T12:26:25.888Z,3.85
2022-07-26T12:28:56.926Z,2.30
2022-07-26T12:31:27.966Z,2.33
2022-07-26T12:33:58.087Z,2.33
2022-07-26T12:36:30.069Z,2.03
2022-07-26T12:39:00.753Z,1.90
2022-07-26T12:41:35.298Z,1.85
2022-07-26T12:44:05.098Z,1.98
2022-07-26T12:46:34.430Z,1.70
2022-07-26T12:49:03.927Z,1.08
2022-07-26T12:51:36.843Z,1.15
2022-07-26T12:54:06.976Z,1.60
2022-07-26T12:56:35.813Z,1.08
2022-07-26T12:59:04.101Z,1.52
2022-07-26T13:01:34.781Z,1.42
2022-07-26T13:04:05.149Z,1.42
2022-07-26T13:06:33.854Z,1.30
2022-07-26T13:09:03.840Z,1.10
2022-07-26T13:11:32.769Z,1.17
2022-07-26T13:14:01.457Z,1.00
2022-07-26T13:16:30.232Z,1.30
2022-07-26T13:18:59.046Z,1.10
2022-07-26T13:21:33.332Z,1.10
2022-07-26T13:24:04.053Z,1.20
2022-07-26T13:26:37.821Z,2.60
2022-07-26T13:29:07.853Z,1.13
2022-07-26T13:31:37.206Z,0.88
2022-07-26T13:34:06.262Z,0.73
2022-07-26T13:36:35.003Z,0.80
2022-07-26T13:39:05.408Z,0.80
2022-07-26T13:41:37.049Z,0.60
2022-07-26T13:44:06.327Z,0.65
2022-07-26T13:46:36.199Z,0.60
2022-07-26T13:49:07.727Z,0.80
2022-07-26T13:51:56.169Z,0.70
2022-07-26T13:54:29.248Z,0.70
2022-07-26T13:56:58.842Z,0.60
2022-07-26T13:59:27.786Z,0.85
2022-07-26T14:01:57.144Z,0.80
2022-07-26T14:04:26.088Z,0.80
2022-07-26T14:06:55.944Z,0.80
2022-07-26T14:09:26.550Z,1.10
2022-07-26T14:11:56.077Z,0.80
2022-07-26T14:14:24.720Z,1.00
2022-07-26T14:16:53.351Z,1.08
2022-07-26T14:19:21.805Z,0.90
2022-07-26T14:21:59.489Z,0.60
2022-07-26T14:24:31.075Z,0.63
2022-07-26T14:27:01.966Z,0.70
2022-07-26T14:29:32.015Z,0.70
2022-07-26T14:32:01.390Z,0.65
2022-07-26T14:34:29.693Z,0.88
2022-07-26T14:36:58.245Z,0.90
2022-07-26T14:39:26.688Z,0.80
2022-07-26T14:41:56.318Z,1.10
2022-07-26T14:44:26.681Z,0.90
2022-07-26T14:46:55.998Z,0.80
2022-07-26T14:49:27.996Z,0.80
2022-07-26T14:51:56.508Z,0.90
2022-07-26T14:54:26.141Z,1.00
2022-07-26T14:56:55.934Z,1.13
2022-07-26T14:59:24.203Z,1.00
2022-07-26T15:01:54.090Z,1.30
2022-07-26T15:04:22.841Z,1.27
2022-07-26T15:06:51.336Z,1.40
2022-07-26T15:09:19.767Z,1.40
2022-07-26T15:11:49.560Z,1.27
2022-07-26T15:14:19.727Z,1.38
2022-07-26T15:16:48.291Z,1.35
2022-07-26T15:19:16.628Z,1.00
2022-07-26T15:21:46.328Z,1.15
2022-07-26T15:24:17.338Z,1.77
2022-07-26T15:26:50.231Z,1.38
2022-07-26T15:29:20.593Z,1.00
2022-07-26T15:31:49.945Z,0.98
2022-07-26T15:34:21.513Z,1.08
2022-07-26T15:36:50.092Z,1.10
2022-07-26T15:39:18.653Z,1.30
2022-07-26T15:41:48.274Z,1.00
2022-07-26T15:44:18.187Z,1.33
2022-07-26T15:46:49.192Z,1.40
2022-07-26T15:49:18.861Z,1.00
2022-07-26T15:51:47.864Z,1.17
2022-07-26T15:54:17.001Z,0.90
2022-07-26T15:56:45.578Z,1.00
2022-07-26T15:59:14.982Z,1.08
2022-07-26T16:01:43.588Z,0.90
2022-07-26T16:04:13.714Z,1.10
2022-07-26T16:06:42.322Z,1.02
2022-07-26T16:09:17.846Z,1.10
2022-07-26T16:11:47.681Z,1.00
2022-07-26T16:14:17.387Z,1.25
2022-07-26T16:16:46.649Z,1.00
2022-07-26T16:19:16.619Z,1.08
2022-07-26T16:21:45.359Z,0.98
2022-07-26T16:24:14.271Z,1.20
2022-07-26T16:26:43.741Z,0.80
2022-07-26T16:29:12.537Z,0.90
2022-07-26T16:31:42.128Z,0.98
2022-07-26T16:34:10.810Z,0.80
2022-07-26T16:36:42.343Z,0.90
2022-07-26T16:39:12.155Z,0.77
2022-07-26T16:41:40.850Z,0.80
2022-07-26T16:44:09.306Z,0.80
2022-07-26T16:46:39.773Z,0.60
2022-07-26T16:49:08.895Z,0.73
2022-07-26T16:51:40.219Z,0.65
2022-07-26T16:54:13.954Z,0.80
2022-07-26T16:56:47.040Z,0.82
2022-07-26T16:59:18.254Z,0.95
2022-07-26T17:01:54.589Z,0.80
2022-07-26T17:04:23.692Z,0.75
2022-07-26T17:07:22.173Z,0.68
2022-07-26T17:09:43.197Z,0.60
2022-07-26T17:12:13.704Z,0.50
2022-07-26T17:14:42.912Z,0.50
2022-07-26T17:17:11.858Z,0.70
2022-07-26T17:19:40.978Z,0.57
2022-07-26T17:22:09.647Z,0.70
2022-07-26T17:24:38.179Z,0.60
2022-07-26T17:27:07.955Z,0.55
2022-07-26T17:29:37.943Z,0.50
2022-07-26T17:32:08.043Z,0.73
2022-07-26T17:34:37.058Z,0.60
2022-07-26T17:37:08.327Z,0.60
2022-07-26T17:39:52.551Z,0.40
2022-07-26T17:42:24.050Z,0.57
2022-07-26T17:44:52.370Z,0.40
2022-07-26T17:47:28.779Z,0.50
2022-07-26T17:52:51.997Z,0.85
2022-07-26T17:55:21.673Z,0.40
2022-07-26T17:57:52.767Z,0.60
2022-07-26T18:00:29.276Z,0.70
2022-07-26T18:02:59.158Z,0.70
2022-07-26T18:05:34.166Z,0.60
2022-07-26T18:08:05.129Z,0.70
2022-07-26T18:10:33.439Z,0.70
2022-07-26T18:13:03.361Z,0.68
2022-07-26T18:15:33.127Z,0.50
2022-07-26T18:18:01.798Z,0.52
2022-07-26T18:20:31.054Z,0.80
2022-07-26T18:22:59.557Z,0.60
2022-07-26T18:25:28.491Z,0.77
2022-07-26T18:27:57.675Z,0.90
2022-07-26T18:30:29.748Z,0.90
2022-07-26T18:32:58.699Z,0.70
2022-07-26T18:35:27.424Z,0.80
2022-07-26T18:37:55.751Z,0.88
2022-07-26T18:40:25.817Z,0.68
2022-07-26T18:42:54.502Z,0.70
2022-07-26T18:45:23.487Z,0.80
2022-07-26T18:47:53.320Z,0.60
2022-07-26T18:50:22.862Z,0.65
2022-07-26T18:52:51.510Z,1.05
2022-07-26T18:55:19.894Z,0.98
2022-07-26T18:57:48.297Z,1.00
2022-07-26T19:00:21.321Z,0.90
2022-07-26T19:02:52.018Z,0.90
2022-07-26T19:05:23.168Z,0.63
2022-07-26T19:07:53.054Z,0.77
2022-07-26T19:10:21.751Z,0.98
2022-07-26T19:12:54.467Z,0.82
2022-07-26T19:15:23.291Z,0.75
2022-07-26T19:17:52.886Z,0.88
2022-07-26T19:20:23.203Z,0.90
2022-07-26T19:22:51.979Z,0.60
2022-07-26T19:25:20.503Z,1.00
2022-07-26T19:27:49.357Z,0.75
2022-07-26T19:30:17.802Z,0.80
2022-07-26T19:32:46.455Z,0.98
2022-07-26T19:35:14.734Z,0.77
2022-07-26T19:37:45.820Z,0.90
2022-07-26T19:40:14.833Z,1.20
2022-07-26T19:42:43.368Z,1.10
2022-07-26T19:45:13.423Z,0.90
2022-07-26T19:47:42.083Z,0.82
2022-07-26T19:50:12.353Z,1.30
2022-07-26T19:52:41.489Z,1.00
2022-07-26T19:55:12.140Z,0.82
2022-07-26T19:57:41.065Z,1.02
2022-07-26T20:00:11.103Z,1.00
2022-07-26T20:02:41.227Z,0.88
2022-07-26T20:05:11.352Z,1.02
2022-07-26T20:07:39.965Z,1.80
2022-07-26T20:10:11.439Z,3.47
2022-07-26T20:12:40.229Z,3.75
2022-07-26T20:15:10.266Z,4.97
2022-07-26T20:17:39.764Z,3.20
2022-07-26T20:20:11.451Z,1.60
2022-07-26T20:22:39.722Z,1.70
2022-07-26T20:25:11.089Z,1.50
2022-07-26T20:27:39.557Z,1.65
2022-07-26T20:30:09.930Z,2.45
2022-07-26T20:32:38.359Z,1.35
2022-07-26T20:35:07.501Z,1.23
2022-07-26T20:37:35.918Z,1.13
2022-07-26T20:40:04.766Z,1.10
2022-07-26T20:42:38.329Z,1.20
2022-07-26T20:45:12.966Z,1.00
2022-07-26T20:47:43.000Z,1.20
2022-07-26T20:50:13.167Z,1.17
2022-07-26T20:52:42.016Z,1.25
2022-07-26T20:55:11.050Z,0.90
2022-07-26T20:57:41.761Z,1.05
2022-07-26T21:00:11.987Z,5.85
2022-07-26T21:02:40.469Z,30.85
2022-07-26T21:05:09.981Z,14.27
2022-07-26T21:07:57.118Z,1.90
2022-07-26T21:10:28.149Z,2.17
2022-07-26T21:13:01.176Z,2.42
2022-07-26T21:15:30.826Z,4.40
2022-07-26T21:18:01.075Z,2.65
2022-07-26T21:20:32.913Z,1.60
2022-07-26T21:23:15.787Z,2.05
2022-07-26T21:25:44.860Z,0.95
2022-07-26T21:28:15.759Z,0.93
2022-07-26T21:30:44.957Z,1.00
2022-07-26T21:33:13.830Z,0.80
2022-07-26T21:35:42.153Z,1.30
2022-07-26T21:38:11.193Z,1.10
2022-07-26T21:40:40.119Z,1.05
2022-07-26T21:43:08.538Z,1.30
2022-07-26T21:45:39.572Z,1.13
2022-07-26T21:48:08.195Z,1.30
2022-07-26T21:50:37.681Z,1.35
2022-07-26T21:53:06.027Z,1.42
2022-07-26T21:55:35.161Z,1.25
2022-07-26T21:58:04.116Z,1.10
2022-07-26T22:00:32.969Z,1.00
2022-07-26T22:03:02.756Z,1.10
2022-07-26T22:05:38.108Z,0.85
2022-07-26T22:08:11.638Z,0.98
2022-07-26T22:10:44.734Z,1.30
2022-07-26T22:13:14.550Z,1.58
2022-07-26T22:15:43.262Z,1.10
2022-07-26T22:18:13.547Z,1.27
2022-07-26T22:20:44.664Z,1.20
2022-07-26T22:23:14.093Z,1.10
2022-07-26T22:25:42.983Z,1.10
2022-07-26T22:28:18.365Z,0.98
2022-07-26T22:30:48.985Z,1.20
2022-07-26T22:33:19.946Z,1.67
2022-07-26T22:35:48.920Z,1.25
2022-07-26T22:38:17.720Z,1.10
2022-07-26T22:40:50.173Z,1.30
2022-07-26T22:43:19.423Z,1.30
2022-07-26T22:45:48.228Z,0.95
2022-07-26T22:48:20.411Z,1.30
2022-07-26T22:50:54.324Z,1.10
2022-07-26T22:53:26.526Z,1.13
2022-07-26T22:55:57.046Z,1.10
2022-07-26T22:58:26.911Z,1.13
2022-07-26T23:00:55.985Z,1.23
2022-07-26T23:03:25.686Z,1.45
2022-07-26T23:05:56.563Z,1.25
2022-07-26T23:11:13.507Z,1.10
2022-07-26T23:13:42.612Z,1.13
2022-07-26T23:16:12.323Z,1.25
2022-07-26T23:18:42.487Z,1.52
2022-07-26T23:21:13.901Z,1.73
2022-07-26T23:23:43.292Z,1.27
2022-07-26T23:26:11.851Z,1.20
2022-07-26T23:28:40.460Z,1.20
2022-07-26T23:31:11.356Z,1.40
2022-07-26T23:33:51.822Z,1.52
2022-07-26T23:36:24.876Z,1.27
2022-07-26T23:38:53.956Z,1.55
2022-07-26T23:41:22.670Z,1.20
2022-07-26T23:43:51.553Z,1.40
2022-07-26T23:46:20.747Z,1.40
2022-07-26T23:48:50.771Z,1.27
2022-07-26T23:51:20.678Z,1.30
2022-07-26T23:53:50.884Z,1.10
2022-07-26T23:56:20.582Z,1.13
2022-07-26T23:58:48.995Z,1.45
